Time;durP1;ratioP1;P1;durP2;ratioP2;P2;SDS_P1;SDS_P2;PMS_P1;PMS_P2;Temp;Humidity;BMP_temperature;BMP_pressure;BME280_temperature;BME280_humidity;BME280_pressure;Samples;Min_cycle;Max_cycle;Signal;HPM_P1;HPM_P2
2021/09/25 00:00:55;;;;;;;2.88;2.20;;;14.70;75.70;;;;;;5096328;28;20066;-80
2021/09/25 00:03:21;;;;;;;5.18;2.70;;;14.70;75.50;;;;;;5115923;28;20108;-80
2021/09/25 00:05:47;;;;;;;2.80;2.42;;;14.70;75.50;;;;;;5115955;28;20023;-80
2021/09/25 00:08:13;;;;;;;4.22;2.80;;;14.70;75.10;;;;;;5106580;28;20024;-80
2021/09/25 00:10:40;;;;;;;3.60;2.60;;;14.80;75.10;;;;;;5094201;28;20051;-80
2021/09/25 00:13:06;;;;;;;3.83;2.70;;;14.80;75.00;;;;;;5077128;28;20168;-80
2021/09/25 00:15:32;;;;;;;3.45;2.30;;;14.80;75.10;;;;;;5095612;28;20028;-80
2021/09/25 00:18:02;;;;;;;4.35;2.90;;;14.70;75.20;;;;;;5100606;28;20024;-80
2021/09/25 00:20:27;;;;;;;3.42;2.75;;;14.70;75.20;;;;;;5115765;28;20023;-80
2021/09/25 00:22:54;;;;;;;4.63;3.30;;;14.70;75.20;;;;;;5114912;28;20127;-81
2021/09/25 00:25:19;;;;;;;3.63;2.85;;;14.70;75.30;;;;;;5096103;28;20846;-81
2021/09/25 00:27:45;;;;;;;3.92;2.67;;;14.70;75.30;;;;;;5095569;28;20085;-80
2021/09/25 00:30:12;;;;;;;4.57;3.15;;;14.60;75.40;;;;;;5095148;28;20016;-80
2021/09/25 00:32:39;;;;;;;4.57;2.90;;;14.70;75.50;;;;;;5077484;28;20139;-81
2021/09/25 00:35:07;;;;;;;3.92;2.53;;;14.70;75.50;;;;;;5095647;28;20031;-80
2021/09/25 00:37:32;;;;;;;3.92;3.03;;;14.70;75.60;;;;;;5081556;28;20032;-80
2021/09/25 00:39:58;;;;;;;5.60;3.55;;;14.70;75.50;;;;;;5106295;28;20026;-80
2021/09/25 00:42:24;;;;;;;3.65;3.08;;;14.70;75.60;;;;;;5128934;27;20025;-80
2021/09/25 00:44:50;;;;;;;4.82;3.10;;;14.70;75.60;;;;;;5133486;27;20016;-81
2021/09/25 00:47:16;;;;;;;4.85;3.15;;;14.60;75.40;;;;;;5081747;28;20482;-80
2021/09/25 00:49:41;;;;;;;4.63;3.00;;;14.50;75.50;;;;;;5099133;28;20085;-80
2021/09/25 00:52:10;;;;;;;5.07;3.33;;;14.60;75.80;;;;;;5099290;28;20062;-80
2021/09/25 00:54:36;;;;;;;5.13;3.65;;;14.60;75.60;;;;;;5080840;28;20512;-80
2021/09/25 00:57:03;;;;;;;5.15;3.40;;;14.60;75.60;;;;;;5099234;28;20031;-80
2021/09/25 00:59:29;;;;;;;4.95;3.03;;;14.50;75.40;;;;;;5099072;28;20028;-80
2021/09/25 01:01:55;;;;;;;6.05;3.72;;;14.40;75.70;;;;;;5099066;28;20112;-80
2021/09/25 01:04:21;;;;;;;5.07;3.50;;;14.40;75.90;;;;;;5099152;28;20028;-80
2021/09/25 01:06:47;;;;;;;4.95;3.42;;;14.40;75.80;;;;;;5098813;28;20099;-81
2021/09/25 01:09:15;;;;;;;4.50;3.25;;;14.40;75.60;;;;;;5106256;27;20019;-81
2021/09/25 01:11:41;;;;;;;5.05;3.40;;;14.40;75.80;;;;;;5139859;27;20034;-81
2021/09/25 01:14:07;;;;;;;5.53;3.13;;;14.40;75.90;;;;;;5139702;27;20079;-80
2021/09/25 01:16:33;;;;;;;4.97;3.63;;;14.30;75.80;;;;;;5105873;28;20024;-80
2021/09/25 01:18:59;;;;;;;6.68;3.47;;;14.30;76.20;;;;;;5098512;28;20371;-80
2021/09/25 01:21:25;;;;;;;4.07;2.90;;;14.30;76.20;;;;;;5098810;28;20051;-81
2021/09/25 01:23:51;;;;;;;6.00;3.63;;;14.30;76.00;;;;;;5094486;28;20040;-80
2021/09/25 01:26:20;;;;;;;3.58;2.75;;;14.30;75.80;;;;;;5080100;28;20060;-80
2021/09/25 01:28:46;;;;;;;5.18;3.75;;;14.30;75.60;;;;;;5100476;28;20026;-81
2021/09/25 01:31:13;;;;;;;6.07;3.50;;;14.30;75.80;;;;;;5100151;28;20032;-80
2021/09/25 01:33:42;;;;;;;4.68;3.15;;;14.30;75.90;;;;;;5098950;28;20024;-80
2021/09/25 01:36:10;;;;;;;3.97;3.40;;;14.20;75.90;;;;;;5098528;28;20081;-81
2021/09/25 01:38:37;;;;;;;4.82;3.53;;;14.30;75.80;;;;;;5098027;28;20032;-81
2021/09/25 01:41:03;;;;;;;5.55;3.97;;;14.30;76.00;;;;;;5098235;28;20016;-81
2021/09/25 01:43:30;;;;;;;5.55;3.78;;;14.30;76.00;;;;;;5118641;27;20030;-81
2021/09/25 01:45:57;;;;;;;6.43;3.85;;;14.30;76.20;;;;;;5138698;27;20034;-81
2021/09/25 01:48:23;;;;;;;5.05;3.53;;;14.30;76.20;;;;;;5119928;27;20649;-81
2021/09/25 01:50:50;;;;;;;6.13;3.97;;;14.30;76.30;;;;;;5098150;28;20482;-80
2021/09/25 01:53:17;;;;;;;6.63;3.83;;;14.30;76.40;;;;;;5091827;28;20031;-81
2021/09/25 01:55:43;;;;;;;7.45;4.00;;;14.20;76.50;;;;;;5118510;28;20057;-80
2021/09/25 01:58:09;;;;;;;6.90;4.43;;;14.20;77.70;;;;;;5118186;28;20032;-80
2021/09/25 02:00:35;;;;;;;7.53;4.80;;;14.20;77.30;;;;;;5101005;28;20081;-81
2021/09/25 02:03:03;;;;;;;6.78;5.07;;;14.20;77.90;;;;;;5097892;28;20020;-81
2021/09/25 02:05:29;;;;;;;7.22;4.53;;;14.20;78.50;;;;;;5079766;28;20024;-80
2021/09/25 02:07:55;;;;;;;6.40;4.35;;;14.20;78.40;;;;;;5097680;28;20043;-81
2021/09/25 02:10:21;;;;;;;6.68;4.22;;;14.20;77.90;;;;;;5097763;28;20482;-81
2021/09/25 02:12:46;;;;;;;5.57;4.20;;;14.20;77.40;;;;;;5079407;28;20099;-81
2021/09/25 02:15:13;;;;;;;6.28;4.20;;;14.20;77.80;;;;;;5097585;28;20020;-81
2021/09/25 02:17:40;;;;;;;7.60;4.75;;;14.30;77.90;;;;;;5079304;28;20482;-81
2021/09/25 02:20:09;;;;;;;5.68;4.22;;;14.30;77.80;;;;;;5097341;28;20039;-81
2021/09/25 02:22:35;;;;;;;6.72;4.30;;;14.30;77.40;;;;;;5097561;28;20832;-81
2021/09/25 02:25:02;;;;;;;7.03;4.68;;;14.30;77.30;;;;;;5097618;28;20025;-81
2021/09/25 02:27:27;;;;;;;7.18;4.25;;;14.30;77.50;;;;;;5096048;28;20094;-81
2021/09/25 02:29:53;;;;;;;6.30;4.38;;;14.20;77.30;;;;;;5097548;28;20032;-81
2021/09/25 02:32:18;;;;;;;6.03;4.88;;;14.30;77.20;;;;;;5097197;28;20024;-80
2021/09/25 02:34:44;;;;;;;4.75;3.83;;;14.20;77.10;;;;;;5097520;28;20024;-81
2021/09/25 02:37:10;;;;;;;5.88;3.90;;;14.20;77.20;;;;;;5079158;28;20081;-81
2021/09/25 02:39:36;;;;;;;6.30;4.68;;;14.20;77.10;;;;;;5095987;28;20185;-81
2021/09/25 02:42:02;;;;;;;5.97;4.40;;;14.20;77.40;;;;;;5109225;27;20018;-80
2021/09/25 02:44:28;;;;;;;8.02;4.53;;;14.20;78.20;;;;;;5138111;27;20031;-81
2021/09/25 02:46:54;;;;;;;8.45;5.22;;;14.10;78.20;;;;;;5122430;27;20016;-81
2021/09/25 02:49:21;;;;;;;9.50;6.00;;;14.20;78.20;;;;;;5078744;28;20064;-81
2021/09/25 02:51:47;;;;;;;10.55;5.78;;;14.20;78.40;;;;;;5097193;28;20059;-81
2021/09/25 02:54:13;;;;;;;8.45;5.07;;;14.20;77.90;;;;;;5097045;28;20051;-81
2021/09/25 02:56:39;;;;;;;9.70;6.28;;;14.20;78.10;;;;;;5111837;28;20027;-81
2021/09/25 02:59:05;;;;;;;10.70;5.88;;;14.20;78.20;;;;;;5113742;28;20031;-81
2021/09/25 03:01:31;;;;;;;7.80;5.60;;;14.20;78.50;;;;;;5096811;28;20024;-81
2021/09/25 03:03:57;;;;;;;9.55;6.32;;;14.20;79.20;;;;;;5078644;28;20089;-81
2021/09/25 03:06:24;;;;;;;12.93;6.38;;;14.20;78.90;;;;;;5099980;28;20039;-81
2021/09/25 03:08:53;;;;;;;7.75;5.95;;;14.20;79.10;;;;;;5117058;28;20110;-81
2021/09/25 03:11:19;;;;;;;9.73;6.25;;;14.10;79.90;;;;;;5117011;28;20066;-81
2021/09/25 03:13:46;;;;;;;9.35;6.47;;;14.10;79.80;;;;;;5102015;28;20035;-81
2021/09/25 03:16:13;;;;;;;9.10;5.22;;;14.10;80.10;;;;;;5096409;28;20028;-81
2021/09/25 03:18:39;;;;;;;10.55;5.90;;;14.10;80.10;;;;;;5096361;28;20114;-81
2021/09/25 03:21:05;;;;;;;9.18;6.10;;;14.00;80.00;;;;;;5078461;28;20035;-81
2021/09/25 03:23:31;;;;;;;8.95;5.47;;;14.00;79.80;;;;;;5110031;28;20048;-81
2021/09/25 03:25:56;;;;;;;9.20;5.32;;;14.00;79.90;;;;;;5116749;28;20019;-82
2021/09/25 03:28:22;;;;;;;8.27;5.55;;;14.00;79.60;;;;;;5098519;28;20024;-81
2021/09/25 03:30:48;;;;;;;8.70;5.93;;;14.00;79.60;;;;;;5093753;28;20036;-81
2021/09/25 03:33:14;;;;;;;9.20;6.20;;;14.00;79.30;;;;;;5096476;28;20028;-81
2021/09/25 03:35:46;;;;;;;8.70;6.05;;;14.10;79.00;;;;;;5077962;28;20036;-81
2021/09/25 03:38:17;;;;;;;9.07;5.68;;;14.00;78.60;;;;;;5077728;28;20041;-81
2021/09/25 03:40:44;;;;;;;9.52;6.18;;;14.00;79.00;;;;;;5116145;28;20035;-81
2021/09/25 03:43:10;;;;;;;9.23;6.25;;;14.00;78.90;;;;;;5113333;27;20024;-81
2021/09/25 03:45:35;;;;;;;11.05;6.63;;;14.00;78.60;;;;;;5111370;28;20070;-81
2021/09/25 03:48:01;;;;;;;11.70;6.78;;;14.00;78.70;;;;;;5095998;28;20024;-81
2021/09/25 03:50:27;;;;;;;10.55;7.45;;;14.00;78.80;;;;;;5077762;28;20549;-81
2021/09/25 03:52:53;;;;;;;12.88;7.50;;;14.00;78.70;;;;;;5092009;28;20035;-82
2021/09/25 03:55:18;;;;;;;13.57;7.95;;;14.00;78.70;;;;;;5098011;28;20035;-82
2021/09/25 03:57:44;;;;;;;12.93;8.05;;;14.00;78.90;;;;;;5093307;28;20036;-81
2021/09/25 04:00:10;;;;;;;12.45;8.15;;;14.00;79.30;;;;;;5077954;28;20020;-81
2021/09/25 04:02:36;;;;;;;12.20;7.95;;;14.00;79.80;;;;;;5095621;28;20065;-81
2021/09/25 04:05:02;;;;;;;13.95;8.85;;;14.00;79.50;;;;;;5077388;28;20024;-82
2021/09/25 04:07:28;;;;;;;13.07;8.60;;;14.00;79.40;;;;;;5086542;28;20047;-82
2021/09/25 04:09:53;;;;;;;12.27;7.90;;;14.00;79.50;;;;;;5115824;28;20416;-82
2021/09/25 04:12:19;;;;;;;14.57;9.60;;;14.00;79.50;;;;;;5093147;28;20034;-82
2021/09/25 04:14:45;;;;;;;13.32;8.77;;;14.00;79.30;;;;;;5095622;28;20035;-82
2021/09/25 04:17:13;;;;;;;12.73;8.55;;;14.00;78.90;;;;;;5095572;28;20051;-81
2021/09/25 04:19:38;;;;;;;11.27;7.05;;;14.00;78.70;;;;;;5093899;28;20032;-81
2021/09/25 04:22:04;;;;;;;10.77;7.65;;;14.00;78.80;;;;;;5077517;28;20021;-81
2021/09/25 04:24:29;;;;;;;9.88;7.45;;;14.00;78.50;;;;;;5077252;28;20478;-82
2021/09/25 04:26:55;;;;;;;12.38;7.15;;;14.00;78.30;;;;;;5095562;28;20497;-82
2021/09/25 04:29:21;;;;;;;10.73;7.30;;;14.00;78.30;;;;;;5095400;28;20382;-82
2021/09/25 04:31:46;;;;;;;10.55;7.32;;;13.90;78.20;;;;;;5078463;28;20081;-82
2021/09/25 04:34:15;;;;;;;10.45;7.28;;;13.90;78.00;;;;;;5081834;28;20026;-82
2021/09/25 04:36:42;;;;;;;12.40;7.65;;;13.90;78.40;;;;;;5115641;28;20032;-82
2021/09/25 04:39:08;;;;;;;15.52;8.25;;;13.80;78.40;;;;;;5097134;28;20031;-82
2021/09/25 04:41:34;;;;;;;13.88;7.85;;;13.80;78.40;;;;;;5099728;28;20020;-82
2021/09/25 04:44:00;;;;;;;10.60;7.13;;;13.90;78.50;;;;;;5117125;28;20028;-82
2021/09/25 04:46:26;;;;;;;11.43;7.63;;;13.80;78.40;;;;;;5095255;28;20031;-82
2021/09/25 04:48:52;;;;;;;12.40;7.93;;;13.80;78.40;;;;;;5095025;28;20024;-82
2021/09/25 04:51:21;;;;;;;10.68;6.72;;;13.70;78.50;;;;;;5096787;28;20046;-82
2021/09/25 04:53:47;;;;;;;15.32;6.60;;;13.70;78.40;;;;;;5097160;28;20622;-82
2021/09/25 04:56:12;;;;;;;14.05;8.43;;;13.70;78.50;;;;;;5097422;28;20027;-82
2021/09/25 04:58:39;;;;;;;9.85;7.53;;;13.70;78.80;;;;;;5100059;28;20043;-82
2021/09/25 05:01:07;;;;;;;11.35;7.70;;;13.60;79.50;;;;;;5095078;28;20152;-82
2021/09/25 05:03:33;;;;;;;11.40;7.30;;;13.70;79.20;;;;;;5095202;28;20043;-81
2021/09/25 05:06:00;;;;;;;11.70;8.13;;;13.60;79.60;;;;;;5077003;28;20111;-81
2021/09/25 05:08:27;;;;;;;14.98;9.23;;;13.70;79.20;;;;;;5098541;28;20435;-82
2021/09/25 05:10:53;;;;;;;13.70;8.18;;;13.70;79.10;;;;;;5088985;28;20023;-82
2021/09/25 05:13:18;;;;;;;14.15;8.52;;;13.70;79.30;;;;;;5095184;28;20027;-82
2021/09/25 05:15:44;;;;;;;13.77;8.50;;;13.70;79.40;;;;;;5096596;28;20027;-82
2021/09/25 05:18:10;;;;;;;10.43;7.10;;;13.70;79.10;;;;;;5096048;28;20019;-82
2021/09/25 05:20:35;;;;;;;13.38;7.80;;;13.70;78.80;;;;;;5095588;28;20112;-82
2021/09/25 05:23:01;;;;;;;12.80;7.88;;;13.60;78.80;;;;;;5117529;28;20565;-82
2021/09/25 05:25:27;;;;;;;14.60;7.68;;;13.70;78.80;;;;;;5118229;28;20023;-82
2021/09/25 05:27:53;;;;;;;12.00;7.43;;;13.70;78.60;;;;;;5097797;28;20453;-82
2021/09/25 05:30:19;;;;;;;11.07;7.45;;;13.70;78.70;;;;;;5118359;28;20039;-82
2021/09/25 05:32:45;;;;;;;13.00;7.78;;;13.70;78.70;;;;;;5116978;28;20977;-82
2021/09/25 05:35:10;;;;;;;10.98;7.75;;;13.70;78.70;;;;;;5099826;28;20063;-82
2021/09/25 05:37:36;;;;;;;12.93;7.18;;;13.60;78.40;;;;;;5117957;28;20028;-82
2021/09/25 05:40:03;;;;;;;12.88;8.02;;;13.70;78.20;;;;;;5117956;28;20504;-82
2021/09/25 05:42:31;;;;;;;9.10;6.75;;;13.70;77.80;;;;;;5099917;28;20493;-83
2021/09/25 05:44:57;;;;;;;13.60;7.38;;;13.60;77.80;;;;;;5118882;28;20020;-87
2021/09/25 05:47:25;;;;;;;10.70;6.65;;;13.60;77.80;;;;;;5099937;28;20035;-89
2021/09/25 05:49:52;;;;;;;11.55;7.53;;;13.60;77.70;;;;;;5099667;28;20065;-84
2021/09/25 05:52:18;;;;;;;12.45;8.07;;;13.60;77.70;;;;;;5116401;28;20040;-85
2021/09/25 05:54:44;;;;;;;12.30;7.85;;;13.60;77.80;;;;;;5117474;28;20016;-86
2021/09/25 05:57:10;;;;;;;12.63;7.70;;;13.50;78.20;;;;;;5117922;28;20085;-90
2021/09/25 05:59:36;;;;;;;12.82;7.63;;;13.50;78.30;;;;;;5113565;28;20035;-88
2021/09/25 06:02:03;;;;;;;12.75;7.78;;;13.60;78.10;;;;;;5115095;28;20042;-88
2021/09/25 06:04:29;;;;;;;11.32;8.00;;;13.60;77.90;;;;;;5080661;28;20461;-88
2021/09/25 06:06:55;;;;;;;12.45;7.97;;;13.60;77.60;;;;;;5119142;28;20023;-80
2021/09/25 06:09:21;;;;;;;11.93;7.03;;;13.60;77.70;;;;;;5115577;28;20035;-82
2021/09/25 06:11:49;;;;;;;11.32;7.28;;;13.60;78.00;;;;;;5099615;28;20042;-82
2021/09/25 06:14:15;;;;;;;12.20;7.97;;;13.50;78.00;;;;;;5117897;28;20482;-84
2021/09/25 06:16:41;;;;;;;11.98;7.35;;;13.50;77.90;;;;;;5118390;28;20401;-87
2021/09/25 06:19:07;;;;;;;13.00;7.88;;;13.50;78.20;;;;;;5103069;28;20028;-80
2021/09/25 06:21:33;;;;;;;12.85;7.88;;;13.50;78.20;;;;;;5108714;28;20027;-85
2021/09/25 06:23:58;;;;;;;12.80;7.68;;;13.50;78.20;;;;;;5116865;28;20043;-84
2021/09/25 06:26:24;;;;;;;10.55;6.97;;;13.50;78.10;;;;;;5109028;27;20038;-85
2021/09/25 06:28:50;;;;;;;13.27;8.20;;;13.50;78.10;;;;;;5096858;28;20031;-85
2021/09/25 06:31:20;;;;;;;13.70;7.63;;;13.60;78.10;;;;;;5095329;28;20398;-83
2021/09/25 06:33:45;;;;;;;12.65;8.30;;;13.60;78.10;;;;;;5078760;28;20034;-84
2021/09/25 06:36:14;;;;;;;12.18;7.47;;;13.60;78.10;;;;;;5089916;28;20497;-78
2021/09/25 06:38:40;;;;;;;12.88;8.23;;;13.60;78.00;;;;;;5111410;28;20583;-82
2021/09/25 06:41:07;;;;;;;15.32;8.50;;;13.70;77.90;;;;;;5117153;28;20024;-90
2021/09/25 06:43:33;;;;;;;13.15;8.00;;;13.70;77.90;;;;;;5106117;28;20023;-87
2021/09/25 06:45:59;;;;;;;13.40;7.35;;;13.70;77.90;;;;;;5114877;28;20114;-87
2021/09/25 06:48:25;;;;;;;11.73;7.53;;;13.70;78.00;;;;;;5078318;28;20017;-88
2021/09/25 06:50:51;;;;;;;11.48;7.68;;;13.70;78.00;;;;;;5096469;28;20035;-85
2021/09/25 06:53:16;;;;;;;12.73;7.97;;;13.80;78.00;;;;;;5097504;28;20060;-86
2021/09/25 06:55:42;;;;;;;10.02;6.97;;;14.20;77.30;;;;;;5094819;28;20057;-87
2021/09/25 06:58:08;;;;;;;9.85;7.60;;;14.70;75.60;;;;;;5097360;28;20035;-92
2021/09/25 07:00:34;;;;;;;12.13;7.57;;;15.00;74.50;;;;;;5109027;28;20077;-91
2021/09/25 07:03:00;;;;;;;9.15;6.10;;;15.70;72.80;;;;;;5108801;28;20031;-91
2021/09/25 07:05:26;;;;;;;10.48;6.93;;;15.80;71.80;;;;;;5118128;28;20031;-92
2021/09/25 07:07:52;;;;;;;9.02;6.43;;;15.70;72.30;;;;;;5118570;28;20020;-91
2021/09/25 07:10:18;;;;;;;8.55;6.20;;;15.70;72.40;;;;;;5105392;28;20035;-91
2021/09/25 07:12:44;;;;;;;8.23;5.90;;;15.50;73.20;;;;;;5097238;28;20725;-91
2021/09/25 07:15:11;;;;;;;10.57;6.75;;;15.30;74.10;;;;;;5110343;28;20024;-91
2021/09/25 07:17:37;;;;;;;11.00;6.53;;;15.20;74.70;;;;;;5107352;28;20031;-87
2021/09/25 07:20:07;;;;;;;14.48;7.43;;;15.30;74.90;;;;;;5117334;28;20041;-84
2021/09/25 07:22:33;;;;;;;9.73;7.13;;;15.30;75.00;;;;;;5114533;28;20081;-84
2021/09/25 07:24:59;;;;;;;11.68;7.13;;;15.60;74.70;;;;;;5098059;28;20039;-82
2021/09/25 07:27:27;;;;;;;11.98;7.63;;;15.70;74.20;;;;;;5113773;28;20031;-84
2021/09/25 07:29:53;;;;;;;9.15;6.85;;;15.70;74.30;;;;;;5098416;28;20028;-84
2021/09/25 07:32:19;;;;;;;12.48;8.30;;;15.80;73.60;;;;;;5107941;28;20394;-83
2021/09/25 07:34:46;;;;;;;12.38;7.60;;;16.20;73.10;;;;;;5095854;28;20047;-87
2021/09/25 07:37:12;;;;;;;14.52;9.98;;;16.50;72.00;;;;;;5102594;27;20020;-87
2021/09/25 07:39:39;;;;;;;14.57;9.13;;;16.80;72.80;;;;;;5114550;28;20397;-86
2021/09/25 07:42:05;;;;;;;11.95;9.00;;;16.90;72.50;;;;;;5084540;28;20027;-82
2021/09/25 07:44:31;;;;;;;15.52;10.57;;;16.90;72.50;;;;;;5106087;27;20053;-86
2021/09/25 07:46:57;;;;;;;16.90;9.77;;;16.80;73.20;;;;;;5104626;28;20521;-83
2021/09/25 07:49:22;;;;;;;13.25;10.15;;;16.80;73.80;;;;;;5094478;28;20028;-83
2021/09/25 07:51:48;;;;;;;14.93;10.00;;;16.60;74.00;;;;;;5093434;28;20024;-83
2021/09/25 07:54:15;;;;;;;17.00;11.13;;;16.50;74.60;;;;;;5092916;28;20103;-81
2021/09/25 07:56:40;;;;;;;14.27;9.90;;;16.30;75.40;;;;;;5095035;28;20028;-83
2021/09/25 07:59:06;;;;;;;16.48;11.07;;;16.30;75.70;;;;;;5112998;28;20213;-83
2021/09/25 08:01:32;;;;;;;14.82;9.65;;;16.30;76.30;;;;;;5097263;28;20024;-83
2021/09/25 08:03:57;;;;;;;15.70;10.68;;;16.20;76.20;;;;;;5092849;28;20032;-82
2021/09/25 08:06:23;;;;;;;15.05;10.05;;;16.10;77.30;;;;;;5108744;28;20600;-82
2021/09/25 08:08:49;;;;;;;16.58;10.77;;;16.10;77.40;;;;;;5104689;28;20505;-82
2021/09/25 08:11:15;;;;;;;18.60;10.93;;;16.30;77.40;;;;;;5096409;28;20059;-81
2021/09/25 08:13:41;;;;;;;18.38;11.50;;;16.40;77.20;;;;;;5104594;28;20518;-79
2021/09/25 08:16:06;;;;;;;16.05;11.23;;;16.60;77.20;;;;;;5104840;28;20492;-79
2021/09/25 08:18:32;;;;;;;17.42;11.38;;;16.70;76.90;;;;;;5111252;28;20051;-80
2021/09/25 08:20:58;;;;;;;18.75;10.30;;;16.80;76.50;;;;;;5108453;28;20443;-81
2021/09/25 08:23:24;;;;;;;14.48;8.98;;;16.90;76.30;;;;;;5114638;28;20036;-81
2021/09/25 08:25:50;;;;;;;17.30;11.90;;;17.00;75.80;;;;;;5115194;28;20047;-81
2021/09/25 08:28:16;;;;;;;17.70;10.70;;;17.20;75.80;;;;;;5110577;28;20031;-81
2021/09/25 08:30:42;;;;;;;13.20;10.02;;;17.30;75.20;;;;;;5096402;28;20020;-81
2021/09/25 08:33:08;;;;;;;15.95;11.10;;;17.40;74.80;;;;;;5112181;28;20040;-81
2021/09/25 08:35:33;;;;;;;16.38;10.07;;;17.70;74.10;;;;;;5094600;28;20034;-81
2021/09/25 08:37:59;;;;;;;17.58;12.43;;;18.10;73.00;;;;;;5093198;28;20031;-81
2021/09/25 08:40:25;;;;;;;15.52;11.25;;;18.40;72.90;;;;;;5100479;28;20027;-81
2021/09/25 08:42:52;;;;;;;13.88;11.05;;;19.00;71.40;;;;;;5110570;28;20035;-82
2021/09/25 08:45:18;;;;;;;14.93;11.60;;;19.30;69.70;;;;;;5096839;28;20027;-81
2021/09/25 08:47:45;;;;;;;13.77;10.20;;;19.80;69.00;;;;;;5086297;28;20028;-82
2021/09/25 08:50:13;;;;;;;17.60;12.70;;;19.80;67.10;;;;;;5110854;28;20123;-81
2021/09/25 08:52:41;;;;;;;13.70;10.27;;;20.00;67.50;;;;;;5114800;28;20024;-81
2021/09/25 08:55:08;;;;;;;15.75;11.63;;;20.20;67.40;;;;;;5099172;28;20027;-81
2021/09/25 08:57:34;;;;;;;14.23;10.60;;;19.90;66.90;;;;;;5105239;28;20031;-84
2021/09/25 09:00:31;;;;;;;15.07;10.80;;;19.40;68.60;;;;;;5119419;28;20024;-82
2021/09/25 09:03:32;;;;;;;15.48;11.48;;;19.10;70.40;;;;;;5096873;28;20043;-79
2021/09/25 09:06:21;;;;;;;17.17;11.90;;;19.00;70.80;;;;;;5097302;28;20032;-83
2021/09/25 09:08:50;;;;;;;15.50;11.00;;;18.90;71.40;;;;;;5111417;28;20031;-85
2021/09/25 09:11:17;;;;;;;16.77;11.50;;;18.80;70.90;;;;;;5104601;28;20490;-78
2021/09/25 09:13:45;;;;;;;15.73;11.60;;;18.80;71.60;;;;;;5112789;28;20104;-81
2021/09/25 09:16:12;;;;;;;15.70;11.75;;;19.00;71.90;;;;;;5112371;28;20031;-87
2021/09/25 09:18:40;;;;;;;15.23;11.30;;;19.10;71.00;;;;;;5099308;28;20027;-81
2021/09/25 09:21:19;;;;;;;16.80;12.48;;;19.00;71.20;;;;;;5117378;28;20020;-82
2021/09/25 09:23:55;;;;;;;13.57;11.23;;;19.10;71.30;;;;;;5098723;28;20127;-81
2021/09/25 09:26:27;;;;;;;16.13;11.23;;;19.30;71.60;;;;;;5108063;28;20044;-81
2021/09/25 09:28:55;;;;;;;16.15;11.07;;;19.60;70.80;;;;;;5098200;28;20027;-83
2021/09/25 09:31:22;;;;;;;13.15;10.27;;;19.70;70.40;;;;;;5097750;28;20375;-83
2021/09/25 09:33:51;;;;;;;18.13;11.20;;;19.80;70.20;;;;;;5097585;28;20056;-79
2021/09/25 09:36:37;;;;;;;13.68;11.23;;;20.00;70.80;;;;;;5109558;28;20027;-78
2021/09/25 09:39:13;;;;;;;17.95;12.18;;;20.10;70.40;;;;;;5118166;28;20048;-79
2021/09/25 09:41:43;;;;;;;17.35;12.30;;;20.10;70.90;;;;;;5102311;27;20016;-77
2021/09/25 09:44:14;;;;;;;16.77;11.68;;;20.10;70.10;;;;;;5097978;28;20088;-76
2021/09/25 09:46:46;;;;;;;16.35;12.55;;;20.20;70.00;;;;;;5098429;28;20020;-79
2021/09/25 09:49:17;;;;;;;14.82;11.75;;;20.20;69.00;;;;;;5097706;28;20027;-78
2021/09/25 09:51:47;;;;;;;16.45;12.55;;;20.30;69.90;;;;;;5097398;28;20044;-79
2021/09/25 09:54:34;;;;;;;14.55;11.63;;;20.30;69.60;;;;;;5097642;28;20031;-78
2021/09/25 09:57:04;;;;;;;22.17;13.43;;;20.30;69.30;;;;;;5096684;27;20074;-78
2021/09/25 09:59:30;;;;;;;16.33;12.10;;;20.50;68.90;;;;;;5115574;28;20028;-77
2021/09/25 10:01:56;;;;;;;17.42;13.23;;;20.60;69.20;;;;;;5117193;28;20031;-77
2021/09/25 10:04:22;;;;;;;17.27;13.93;;;20.60;68.90;;;;;;5117251;28;20051;-77
2021/09/25 10:06:50;;;;;;;17.88;13.43;;;20.70;68.60;;;;;;5102872;28;20066;-77
2021/09/25 10:09:19;;;;;;;21.17;13.63;;;20.70;68.20;;;;;;5113784;28;20042;-77
2021/09/25 10:11:50;;;;;;;15.95;12.02;;;20.80;68.80;;;;;;5097079;28;20027;-77
2021/09/25 10:14:19;;;;;;;17.88;12.95;;;20.80;68.50;;;;;;5117252;28;20081;-77
2021/09/25 10:16:45;;;;;;;17.40;12.50;;;20.80;68.30;;;;;;5105030;28;20516;-77
2021/09/25 10:19:12;;;;;;;16.77;13.27;;;20.90;69.40;;;;;;5117674;28;20024;-77
2021/09/25 10:21:39;;;;;;;16.10;12.30;;;21.00;68.10;;;;;;5117932;28;20434;-77
2021/09/25 10:24:24;;;;;;;15.68;12.40;;;21.10;68.10;;;;;;5116837;28;20046;-77
2021/09/25 10:26:51;;;;;;;19.67;13.52;;;21.30;67.40;;;;;;5097267;28;20024;-78
2021/09/25 10:29:23;;;;;;;16.73;11.73;;;21.30;66.60;;;;;;5097369;28;20024;-77
2021/09/25 10:32:09;;;;;;;16.17;12.15;;;21.40;67.50;;;;;;5115689;28;20101;-77
2021/09/25 10:34:35;;;;;;;15.20;12.15;;;21.50;67.10;;;;;;5117299;28;20028;-77
2021/09/25 10:37:01;;;;;;;16.65;12.80;;;21.60;67.20;;;;;;5104897;28;20385;-76
2021/09/25 10:39:36;;;;;;;15.27;11.02;;;21.70;66.90;;;;;;5097106;28;20032;-82
2021/09/25 10:42:15;;;;;;;16.60;12.32;;;21.80;65.30;;;;;;5109147;27;20094;-77
2021/09/25 10:44:52;;;;;;;14.00;11.50;;;21.90;65.80;;;;;;5129715;27;20859;-79
2021/09/25 10:47:27;;;;;;;16.27;11.95;;;22.00;64.90;;;;;;5115755;28;20039;-79
2021/09/25 10:49:58;;;;;;;13.35;11.35;;;22.20;64.90;;;;;;5112980;28;20112;-80
2021/09/25 10:52:51;;;;;;;13.38;10.45;;;22.40;64.90;;;;;;5094832;28;20045;-85
2021/09/25 10:55:24;;;;;;;11.93;9.80;;;22.50;64.40;;;;;;5087344;28;20051;-86
2021/09/25 10:58:15;;;;;;;13.30;10.55;;;22.50;63.90;;;;;;5110983;28;20050;-80
2021/09/25 11:00:51;;;;;;;12.88;10.10;;;22.50;64.50;;;;;;5115840;28;20047;-83
2021/09/25 11:03:41;;;;;;;12.05;8.48;;;22.50;64.30;;;;;;5119943;28;20052;-84
2021/09/25 11:06:18;;;;;;;10.80;7.53;;;22.40;62.20;;;;;;5117392;28;20049;-77
2021/09/25 11:08:51;;;;;;;9.60;7.00;;;22.30;62.80;;;;;;5106429;28;20023;-76
2021/09/25 11:11:19;;;;;;;9.32;6.50;;;22.30;63.40;;;;;;5111388;27;20020;-77
2021/09/25 11:14:03;;;;;;;9.77;7.07;;;22.30;64.20;;;;;;5101068;27;20053;-76
2021/09/25 11:16:57;;;;;;;10.43;7.15;;;22.20;62.40;;;;;;5090927;28;20032;-77
2021/09/25 11:19:26;;;;;;;8.05;6.25;;;22.20;62.50;;;;;;5100338;28;20031;-77
2021/09/25 11:22:05;;;;;;;7.63;5.70;;;22.10;63.40;;;;;;5107279;27;20030;-77
2021/09/25 11:24:34;;;;;;;8.27;6.20;;;22.10;62.70;;;;;;5095211;28;20169;-76
2021/09/25 11:27:02;;;;;;;8.73;6.00;;;22.00;63.20;;;;;;5104644;28;20024;-76
2021/09/25 11:29:28;;;;;;;11.35;6.38;;;22.00;63.00;;;;;;5102394;27;20645;-77
2021/09/25 11:32:05;;;;;;;9.23;6.90;;;22.00;64.20;;;;;;5100248;27;20421;-76
2021/09/25 11:34:33;;;;;;;9.68;6.57;;;21.80;63.90;;;;;;5104677;27;20030;-79
2021/09/25 11:37:02;;;;;;;9.90;5.88;;;21.80;64.10;;;;;;5111343;27;20024;-81
2021/09/25 11:39:38;;;;;;;9.05;6.25;;;21.70;64.00;;;;;;5103902;27;20405;-80
2021/09/25 11:42:21;;;;;;;7.38;5.72;;;21.70;63.50;;;;;;5093606;28;20058;-79
2021/09/25 11:44:51;;;;;;;6.72;5.18;;;21.60;63.10;;;;;;5100571;27;20067;-90
2021/09/25 11:47:20;;;;;;;7.38;5.93;;;21.60;63.60;;;;;;5106293;28;20019;-87
2021/09/25 11:49:47;;;;;;;10.07;7.15;;;21.70;63.70;;;;;;5099751;28;20023;-81
2021/09/25 11:52:12;;;;;;;12.45;7.45;;;21.70;63.40;;;;;;5109478;27;20127;-77
2021/09/25 11:54:38;;;;;;;12.20;8.75;;;21.80;63.10;;;;;;5113661;28;20055;-77
2021/09/25 11:57:14;;;;;;;11.43;8.82;;;21.80;62.60;;;;;;5107984;28;20116;-77
2021/09/25 11:59:40;;;;;;;9.05;7.22;;;21.80;62.30;;;;;;5109825;28;20026;-77
2021/09/25 12:02:07;;;;;;;12.65;8.57;;;21.80;62.00;;;;;;5094678;28;20576;-77
2021/09/25 12:04:41;;;;;;;9.48;6.72;;;21.90;62.60;;;;;;5113815;28;20095;-77
2021/09/25 12:07:07;;;;;;;13.50;8.15;;;21.90;63.50;;;;;;5110984;28;20209;-77
2021/09/25 12:09:47;;;;;;;9.07;7.47;;;22.00;62.50;;;;;;5114275;28;20863;-78
2021/09/25 12:12:13;;;;;;;;;;;22.00;63.20;;;;;;5095925;28;20036;-78
2021/09/25 12:14:46;;;;;;;10.55;7.38;;;22.00;63.30;;;;;;5111236;28;19912;-77
2021/09/25 12:17:14;;;;;;;11.43;7.32;;;22.00;63.50;;;;;;5112349;28;20038;-79
2021/09/25 12:19:43;;;;;;;13.10;8.77;;;21.80;62.90;;;;;;5106667;28;20035;-78
2021/09/25 12:22:18;;;;;;;12.60;7.93;;;21.80;63.50;;;;;;5111910;28;20020;-78
2021/09/25 12:24:44;;;;;;;9.73;6.28;;;21.70;63.50;;;;;;5107728;28;20035;-78
2021/09/25 12:27:10;;;;;;;9.60;6.55;;;21.60;63.90;;;;;;5111567;28;20016;-78
2021/09/25 12:29:36;;;;;;;9.82;6.90;;;21.50;64.20;;;;;;5111553;28;20031;-78
2021/09/25 12:32:02;;;;;;;8.15;6.60;;;21.50;64.40;;;;;;5119633;28;20051;-78
2021/09/25 12:34:28;;;;;;;9.40;6.60;;;21.50;64.40;;;;;;5119943;28;20031;-78
2021/09/25 12:36:57;;;;;;;9.50;6.22;;;21.40;64.80;;;;;;5121122;28;20024;-79
2021/09/25 12:39:25;;;;;;;9.70;7.30;;;21.40;64.80;;;;;;5120468;28;20373;-79
2021/09/25 12:41:57;;;;;;;9.27;6.60;;;21.30;65.50;;;;;;5123348;27;20019;-78